createdAt,value
2019-04-21T00:00:11.585Z,1022.32
2019-04-21T00:01:09.062Z,1022.32
2019-04-21T00:02:03.559Z,1022.37
2019-04-21T00:03:21.331Z,1022.35
2019-04-21T00:04:29.550Z,1022.33
2019-04-21T00:06:47.863Z,1022.32
2019-04-21T00:07:41.849Z,1022.29
2019-04-21T00:09:02.157Z,1022.32
2019-04-21T00:10:05.649Z,1022.32
2019-04-21T00:11:40.644Z,1022.3
2019-04-21T00:13:37.961Z,1022.31
2019-04-21T00:14:26.020Z,1022.32
2019-04-21T00:15:27.535Z,1022.25
2019-04-21T00:16:11.936Z,1022.23
2019-04-21T00:17:14.436Z,1022.23
2019-04-21T00:18:09.184Z,1022.24
2019-04-21T00:19:14.229Z,1022.24
2019-04-21T00:20:20.235Z,1022.24
2019-04-21T00:21:22.221Z,1022.21
2019-04-21T00:22:30.008Z,1022.22
2019-04-21T00:23:37.360Z,1022.18
2019-04-21T00:24:33.506Z,1022.17
2019-04-21T00:25:33.575Z,1022.2
2019-04-21T00:26:36.185Z,1022.16
2019-04-21T00:27:37.971Z,1022.19
2019-04-21T00:29:47.485Z,1022.16
2019-04-21T00:30:44.074Z,1022.17
2019-04-21T00:31:37.751Z,1022.16
2019-04-21T00:32:31.235Z,1022.11
2019-04-21T00:33:17.493Z,1022.14
2019-04-21T00:34:02.756Z,1022.13
2019-04-21T00:35:13.935Z,1022.1
2019-04-21T00:36:18.470Z,1022.1
2019-04-21T00:37:20.606Z,1022.13
2019-04-21T00:39:59.874Z,1022.09
2019-04-21T00:41:43.219Z,1022.09
2019-04-21T00:42:38.419Z,1022.08
2019-04-21T00:43:37.098Z,1022.05
2019-04-21T00:44:26.755Z,1022.08
2019-04-21T00:45:30.935Z,1022.05
2019-04-21T00:46:26.203Z,1022.07
2019-04-21T00:47:50.860Z,1022.09
2019-04-21T00:48:47.396Z,1022.1
2019-04-21T00:49:35.358Z,1022.1
2019-04-21T00:51:09.580Z,1022.11
2019-04-21T00:52:01.816Z,1022.09
2019-04-21T00:53:04.485Z,1022.08
2019-04-21T00:54:03.599Z,1022.08
2019-04-21T00:55:55.130Z,1022.09
2019-04-21T00:57:55.846Z,1022.14
2019-04-21T00:59:13.464Z,1022.11
2019-04-21T01:00:50.939Z,1022.11
2019-04-21T01:01:43.374Z,1022.1
2019-04-21T01:02:49.563Z,1022.1
2019-04-21T01:03:51.592Z,1022.11
2019-04-21T01:04:49.285Z,1022.09
2019-04-21T01:05:55.897Z,1022.07
2019-04-21T01:06:54.230Z,1022.1
2019-04-21T01:07:45.319Z,1022.05
2019-04-21T01:08:45.547Z,1022.06
2019-04-21T01:09:42.171Z,1022.07
2019-04-21T01:10:28.339Z,1022.05
2019-04-21T01:11:54.866Z,1022.07
2019-04-21T01:13:02.398Z,1022.07
2019-04-21T01:13:57.831Z,1022.09
2019-04-21T01:14:55.110Z,1022.05
2019-04-21T01:15:58.940Z,1022.08
2019-04-21T01:16:57.207Z,1022.06
2019-04-21T01:17:40.325Z,1022.08
2019-04-21T01:18:36.717Z,1022.05
2019-04-21T01:19:36.909Z,1022.05
2019-04-21T01:20:17.813Z,1022.03
2019-04-21T01:21:14.563Z,1022.04
2019-04-21T01:22:02.286Z,1022.02
2019-04-21T01:23:02.415Z,1022.03
2019-04-21T01:24:19.625Z,1022.02
2019-04-21T01:25:22.486Z,1021.99
2019-04-21T01:26:32.229Z,1021.99
2019-04-21T01:27:24.908Z,1021.98
2019-04-21T01:28:39.689Z,1021.95
2019-04-21T01:29:52.873Z,1021.97
2019-04-21T01:30:51.633Z,1021.92
2019-04-21T01:33:50.230Z,1021.92
2019-04-21T01:34:44.957Z,1021.95
2019-04-21T01:36:34.492Z,1021.88
2019-04-21T01:37:55.572Z,1021.91
2019-04-21T01:39:00.404Z,1021.89
2019-04-21T01:39:59.899Z,1021.93
2019-04-21T01:40:52.549Z,1021.89
2019-04-21T01:41:56.869Z,1021.89
2019-04-21T01:42:45.041Z,1021.91
2019-04-21T01:43:45.009Z,1021.9
2019-04-21T01:44:58.029Z,1021.87
2019-04-21T01:46:39.091Z,1021.85
2019-04-21T01:47:35.735Z,1021.83
2019-04-21T01:48:34.025Z,1021.82
2019-04-21T01:49:26.281Z,1021.85
2019-04-21T01:50:34.261Z,1021.83
2019-04-21T01:51:39.491Z,1021.82
2019-04-21T01:52:55.706Z,1021.82
2019-04-21T01:54:40.212Z,1021.8
2019-04-21T01:55:48.019Z,1021.82
2019-04-21T01:56:50.885Z,1021.78
2019-04-21T01:57:33.951Z,1021.78
2019-04-21T01:58:28.684Z,1021.74
2019-04-21T01:59:25.348Z,1021.72
2019-04-21T02:00:32.504Z,1021.75
2019-04-21T02:01:38.415Z,1021.7
2019-04-21T02:02:43.117Z,1021.69
2019-04-21T02:04:04.099Z,1021.68
2019-04-21T02:04:55.619Z,1021.68
2019-04-21T02:05:36.200Z,1021.64
2019-04-21T02:07:44.025Z,1021.67
2019-04-21T02:08:35.839Z,1021.63
2019-04-21T02:09:41.781Z,1021.64
2019-04-21T02:10:54.401Z,1021.61
2019-04-21T02:11:54.579Z,1021.65
2019-04-21T02:12:44.202Z,1021.62
2019-04-21T02:13:46.513Z,1021.57
2019-04-21T02:15:35.845Z,1021.58
2019-04-21T02:15:48.604Z,1021.56
2019-04-21T02:16:40.283Z,1021.56
2019-04-21T02:17:46.796Z,1021.54
2019-04-21T02:19:31.069Z,1021.54
2019-04-21T02:20:28.740Z,1021.55
2019-04-21T02:23:09.794Z,1021.52
2019-04-21T02:23:58.526Z,1021.53
2019-04-21T02:25:00.825Z,1021.53
2019-04-21T02:26:45.499Z,1021.54
2019-04-21T02:28:59.926Z,1021.55
2019-04-21T02:29:59.613Z,1021.53
2019-04-21T02:31:20.251Z,1021.51
2019-04-21T02:32:13.813Z,1021.49
2019-04-21T02:33:18.285Z,1021.48
2019-04-21T02:34:31.983Z,1021.48
2019-04-21T02:35:38.086Z,1021.45
2019-04-21T02:38:07.549Z,1021.41
2019-04-21T02:39:24.731Z,1021.41
2019-04-21T02:41:12.575Z,1021.36
2019-04-21T02:42:00.552Z,1021.33
2019-04-21T02:43:18.426Z,1021.36
2019-04-21T02:44:26.231Z,1021.33
2019-04-21T02:45:16.126Z,1021.31
2019-04-21T02:46:12.236Z,1021.29
2019-04-21T02:48:08.359Z,1021.28
2019-04-21T02:49:12.808Z,1021.29
2019-04-21T02:50:31.346Z,1021.28
2019-04-21T02:50:57.205Z,1021.31
2019-04-21T02:52:19.821Z,1021.28
2019-04-21T02:53:09.320Z,1021.29
2019-04-21T02:54:31.252Z,1021.28
2019-04-21T02:55:02.183Z,1021.28
2019-04-21T02:56:07.525Z,1021.28
2019-04-21T02:57:15.346Z,1021.27
2019-04-21T02:58:15.697Z,1021.25
2019-04-21T02:59:22.501Z,1021.21
2019-04-21T03:00:13.461Z,1021.2
2019-04-21T03:01:30.918Z,1021.2
2019-04-21T03:03:19.490Z,1021.19
2019-04-21T03:03:58.456Z,1021.18
2019-04-21T03:05:10.899Z,1021.15
2019-04-21T03:06:15.131Z,1021.13
2019-04-21T03:07:12.287Z,1021.09
2019-04-21T03:08:02.658Z,1021.1
2019-04-21T03:13:03.321Z,1021.03
2019-04-21T03:14:05.190Z,1021.01
2019-04-21T03:15:28.735Z,1021
2019-04-21T03:16:06.592Z,1021.01
2019-04-21T03:17:04.900Z,1020.97
2019-04-21T03:18:23.982Z,1020.99
2019-04-21T03:19:57.906Z,1020.97
2019-04-21T03:23:07.494Z,1020.95
2019-04-21T03:24:28.808Z,1020.9
2019-04-21T03:26:26.969Z,1020.88
2019-04-21T03:29:02.173Z,1020.85
2019-04-21T03:36:11.843Z,1020.81
2019-04-21T03:36:32.582Z,1020.79
2019-04-21T03:37:22.925Z,1020.78
2019-04-21T03:38:26.693Z,1020.84
2019-04-21T03:39:00.598Z,1020.83
2019-04-21T03:40:14.456Z,1020.81
2019-04-21T03:41:10.284Z,1020.76
2019-04-21T03:42:16.486Z,1020.75
2019-04-21T03:43:26.627Z,1020.75
2019-04-21T03:44:14.206Z,1020.75
2019-04-21T03:45:11.983Z,1020.78
2019-04-21T03:46:14.261Z,1020.76
2019-04-21T03:49:18.943Z,1020.78
2019-04-21T03:50:19.990Z,1020.81
2019-04-21T03:51:02.503Z,1020.81
2019-04-21T03:52:10.619Z,1020.8
2019-04-21T03:53:18.289Z,1020.8
2019-04-21T03:53:59.484Z,1020.79
2019-04-21T03:57:45.708Z,1020.83
2019-04-21T03:58:34.401Z,1020.81
2019-04-21T03:59:10.931Z,1020.86
2019-04-21T04:01:03.807Z,1020.83
2019-04-21T04:02:22.633Z,1020.84
2019-04-21T04:03:41.572Z,1020.86
2019-04-21T04:05:02.514Z,1020.88
2019-04-21T04:07:20.778Z,1020.8
2019-04-21T04:08:07.323Z,1020.86
2019-04-21T04:12:10.963Z,1020.88
2019-04-21T04:13:04.341Z,1020.86
2019-04-21T04:14:12.516Z,1020.82
2019-04-21T04:15:20.232Z,1020.83
2019-04-21T04:16:16.679Z,1020.81
2019-04-21T04:18:27.714Z,1020.75
2019-04-21T04:18:57.199Z,1020.8
2019-04-21T04:20:03.475Z,1020.76
2019-04-21T04:21:18.582Z,1020.78
2019-04-21T04:23:00.718Z,1020.81
2019-04-21T04:24:21.394Z,1020.8
2019-04-21T04:25:17.327Z,1020.8
2019-04-21T04:26:21.853Z,1020.82
2019-04-21T04:27:26.061Z,1020.85
2019-04-21T04:28:18.573Z,1020.82
2019-04-21T04:30:06.157Z,1020.8
2019-04-21T04:31:24.030Z,1020.84
2019-04-21T04:31:54.933Z,1020.87
2019-04-21T04:33:20.028Z,1020.86
2019-04-21T04:35:09.575Z,1020.89
2019-04-21T04:36:33.163Z,1020.91
2019-04-21T04:37:31.605Z,1020.9
2019-04-21T04:38:02.878Z,1020.9
2019-04-21T04:39:13.858Z,1020.91
2019-04-21T04:40:19.453Z,1020.94
2019-04-21T04:41:05.635Z,1020.91
2019-04-21T04:42:29.569Z,1020.93
2019-04-21T04:43:18.479Z,1020.92
2019-04-21T04:44:22.449Z,1020.94
2019-04-21T04:45:23.626Z,1020.95
2019-04-21T04:45:58.031Z,1020.96
2019-04-21T04:47:16.536Z,1020.98
2019-04-21T04:48:10.676Z,1020.97
2019-04-21T04:49:10.411Z,1020.99
2019-04-21T04:51:22.679Z,1021.01
2019-04-21T04:52:50.945Z,1020.99
2019-04-21T04:54:01.463Z,1020.94
2019-04-21T04:55:00.394Z,1020.94
2019-04-21T04:56:03.468Z,1020.95
2019-04-21T04:57:07.285Z,1020.97
2019-04-21T04:59:42.229Z,1020.92
2019-04-21T05:00:09.268Z,1020.93
2019-04-21T05:01:21.156Z,1020.95
2019-04-21T05:04:23.363Z,1020.92
2019-04-21T05:06:33.980Z,1020.93
2019-04-21T05:07:31.704Z,1020.93
2019-04-21T05:08:19.047Z,1020.95
2019-04-21T05:09:20.901Z,1020.98
2019-04-21T05:10:03.685Z,1020.99
2019-04-21T05:11:55.203Z,1020.94
2019-04-21T05:12:56.479Z,1020.93
2019-04-21T05:14:13.011Z,1020.93
2019-04-21T05:15:07.233Z,1020.95
2019-04-21T05:16:00.061Z,1020.95
2019-04-21T05:17:21.325Z,1020.95
2019-04-21T05:18:34.358Z,1020.94
2019-04-21T05:20:22.646Z,1020.93
2019-04-21T05:22:10.874Z,1020.9
2019-04-21T05:22:52.788Z,1020.92
2019-04-21T05:23:50.894Z,1020.89
2019-04-21T05:24:49.126Z,1020.91
2019-04-21T05:25:37.336Z,1020.87
2019-04-21T05:26:31.051Z,1020.89
2019-04-21T05:27:37.838Z,1020.87
2019-04-21T05:28:32.408Z,1020.89
2019-04-21T05:29:29.477Z,1020.89
2019-04-21T05:30:54.971Z,1020.88
2019-04-21T05:31:54.590Z,1020.84
2019-04-21T05:32:59.743Z,1020.85
2019-04-21T05:33:52.856Z,1020.84
2019-04-21T05:34:50.163Z,1020.83
2019-04-21T05:35:55.032Z,1020.84
2019-04-21T05:36:43.982Z,1020.86
2019-04-21T05:37:42.763Z,1020.83
2019-04-21T05:38:37.590Z,1020.82
2019-04-21T05:39:37.385Z,1020.82
2019-04-21T05:40:31.686Z,1020.84
2019-04-21T05:41:20.491Z,1020.85
2019-04-21T05:42:39.435Z,1020.84
2019-04-21T05:43:46.153Z,1020.86
2019-04-21T05:45:01.450Z,1020.86
2019-04-21T05:45:57.752Z,1020.84
2019-04-21T05:48:02.499Z,1020.84
2019-04-21T05:48:51.690Z,1020.84
2019-04-21T05:49:49.601Z,1020.8
2019-04-21T05:51:39.253Z,1020.83
2019-04-21T05:52:32.762Z,1020.87
2019-04-21T05:54:06.436Z,1020.84
2019-04-21T05:55:00.622Z,1020.91
2019-04-21T05:55:56.041Z,1020.87
2019-04-21T05:56:48.345Z,1020.92
2019-04-21T05:57:37.885Z,1020.91
2019-04-21T05:58:43.371Z,1020.91
2019-04-21T05:59:48.754Z,1020.9
2019-04-21T06:01:14.371Z,1020.89
2019-04-21T06:03:03.548Z,1020.87
2019-04-21T06:03:56.856Z,1020.92
2019-04-21T06:05:28.001Z,1020.92
2019-04-21T06:06:08.128Z,1020.87
2019-04-21T06:07:04.165Z,1020.91
2019-04-21T06:07:51.720Z,1020.95
2019-04-21T06:08:52.179Z,1020.88
2019-04-21T06:09:59.347Z,1020.88
2019-04-21T06:10:59.979Z,1020.83
2019-04-21T06:11:55.331Z,1020.87
2019-04-21T06:12:59.039Z,1020.85
2019-04-21T06:14:01.244Z,1020.84
2019-04-21T06:14:53.864Z,1020.86
2019-04-21T06:15:55.938Z,1020.87
2019-04-21T06:17:01.349Z,1020.9
2019-04-21T06:18:04.243Z,1020.84
2019-04-21T06:19:10.013Z,1020.86
2019-04-21T06:19:59.806Z,1020.82
2019-04-21T06:20:59.243Z,1020.86
2019-04-21T06:21:44.401Z,1020.85
2019-04-21T06:22:56.206Z,1020.9
2019-04-21T06:23:49.427Z,1020.88
2019-04-21T06:25:20.567Z,1020.89
2019-04-21T06:26:17.731Z,1020.87
2019-04-21T06:27:57.059Z,1020.89
2019-04-21T06:28:56.477Z,1020.87
2019-04-21T06:29:53.836Z,1020.86
2019-04-21T06:30:59.058Z,1020.87
2019-04-21T06:32:58.893Z,1020.9
2019-04-21T06:33:57.279Z,1020.89
2019-04-21T06:35:12.272Z,1020.83
2019-04-21T06:36:23.082Z,1020.87
2019-04-21T06:37:07.639Z,1020.87
2019-04-21T06:38:12.956Z,1020.85
2019-04-21T06:39:09.881Z,1020.86
2019-04-21T06:40:14.087Z,1020.78
2019-04-21T06:41:03.428Z,1020.84
2019-04-21T06:41:52.894Z,1020.82
2019-04-21T06:44:01.032Z,1020.81
2019-04-21T06:44:57.053Z,1020.8
2019-04-21T06:45:58.680Z,1020.8
2019-04-21T06:46:48.698Z,1020.79
2019-04-21T06:48:04.015Z,1020.79
2019-04-21T06:48:59.396Z,1020.76
2019-04-21T06:49:42.589Z,1020.81
2019-04-21T06:50:58.963Z,1020.77
2019-04-21T06:52:13.200Z,1020.76
2019-04-21T06:52:53.593Z,1020.75
2019-04-21T06:54:03.214Z,1020.79
2019-04-21T06:54:54.701Z,1020.74
2019-04-21T06:55:51.457Z,1020.69
2019-04-21T06:56:56.023Z,1020.71
2019-04-21T06:57:51.326Z,1020.7
2019-04-21T06:58:42.602Z,1020.66
2019-04-21T06:59:38.202Z,1020.64
2019-04-21T07:00:46.755Z,1020.64
2019-04-21T07:01:56.255Z,1020.67
2019-04-21T07:03:13.982Z,1020.65
2019-04-21T07:03:56.753Z,1020.66
2019-04-21T07:04:54.179Z,1020.66
2019-04-21T07:06:03.093Z,1020.64
2019-04-21T07:06:47.847Z,1020.66
2019-04-21T07:08:07.437Z,1020.66
2019-04-21T07:09:20.005Z,1020.69
2019-04-21T07:10:10.186Z,1020.67
2019-04-21T07:11:42.022Z,1020.68
2019-04-21T07:12:44.700Z,1020.66
2019-04-21T07:13:43.828Z,1020.71
2019-04-21T07:15:03.120Z,1020.62
2019-04-21T07:16:03.883Z,1020.64
2019-04-21T07:16:56.084Z,1020.64
2019-04-21T07:17:57.625Z,1020.68
2019-04-21T07:19:05.517Z,1020.65
2019-04-21T07:19:59.924Z,1020.64
2019-04-21T07:20:52.935Z,1020.64
2019-04-21T07:21:50.855Z,1020.62
2019-04-21T07:22:47.597Z,1020.61
2019-04-21T07:23:58.765Z,1020.59
2019-04-21T07:24:55.861Z,1020.61
2019-04-21T07:25:50.955Z,1020.57
2019-04-21T07:26:50.583Z,1020.56
2019-04-21T07:27:51.834Z,1020.54
2019-04-21T07:28:47.513Z,1020.51
2019-04-21T07:29:58.028Z,1020.51
2019-04-21T07:30:58.854Z,1020.54
2019-04-21T07:31:58.539Z,1020.49
2019-04-21T07:32:47.153Z,1020.52
2019-04-21T07:34:13.714Z,1020.51
2019-04-21T07:34:57.220Z,1020.5
2019-04-21T07:35:42.969Z,1020.42
2019-04-21T07:36:57.689Z,1020.45
2019-04-21T07:37:53.193Z,1020.46
2019-04-21T07:39:38.630Z,1020.45
2019-04-21T07:40:38.489Z,1020.43
2019-04-21T07:41:32.816Z,1020.44
2019-04-21T07:42:37.819Z,1020.4
2019-04-21T07:43:33.847Z,1020.38
2019-04-21T07:45:29.952Z,1020.37
2019-04-21T07:46:28.611Z,1020.35
2019-04-21T07:50:46.216Z,1020.41
2019-04-21T07:51:56.229Z,1020.41
2019-04-21T07:52:34.314Z,1020.4
2019-04-21T07:54:01.298Z,1020.38
2019-04-21T07:55:05.300Z,1020.36
2019-04-21T07:55:32.589Z,1020.34
2019-04-21T07:56:19.799Z,1020.38
2019-04-21T07:57:35.040Z,1020.34
2019-04-21T08:00:14.796Z,1020.37
2019-04-21T08:00:56.093Z,1020.38
2019-04-21T08:01:49.635Z,1020.33
2019-04-21T08:02:48.923Z,1020.35
2019-04-21T08:07:04.189Z,1020.34
2019-04-21T08:07:51.755Z,1020.34
2019-04-21T08:09:46.043Z,1020.32
2019-04-21T08:11:41.487Z,1020.29
2019-04-21T08:12:35.787Z,1020.25
2019-04-21T08:13:56.019Z,1020.25
2019-04-21T08:14:49.257Z,1020.27
2019-04-21T08:15:50.605Z,1020.24
2019-04-21T08:16:50.910Z,1020.22
2019-04-21T08:17:46.702Z,1020.25
2019-04-21T08:18:38.947Z,1020.29
2019-04-21T08:19:35.033Z,1020.28
2019-04-21T08:20:41.713Z,1020.23
2019-04-21T08:21:49.463Z,1020.28
2019-04-21T08:23:12.592Z,1020.3
2019-04-21T08:23:46.536Z,1020.27
2019-04-21T08:25:52.745Z,1020.28
2019-04-21T08:27:04.776Z,1020.3
2019-04-21T08:27:58.266Z,1020.32
2019-04-21T08:28:45.396Z,1020.28
2019-04-21T08:29:51.422Z,1020.28
2019-04-21T08:30:47.171Z,1020.22
2019-04-21T08:31:31.882Z,1020.27
2019-04-21T08:33:06.810Z,1020.22
2019-04-21T08:33:52.357Z,1020.23
2019-04-21T08:35:04.404Z,1020.18
2019-04-21T08:36:10.837Z,1020.15
2019-04-21T08:36:50.762Z,1020.13
2019-04-21T08:37:42.817Z,1020.13
2019-04-21T08:38:53.400Z,1020.11
2019-04-21T08:39:54.771Z,1020.07
2019-04-21T08:40:55.678Z,1020.09
2019-04-21T08:41:38.433Z,1020.06
2019-04-21T08:42:44.529Z,1020.04
2019-04-21T08:44:00.562Z,1020.06
2019-04-21T08:44:52.223Z,1020.05
2019-04-21T08:46:58.603Z,1020.03
2019-04-21T08:47:51.786Z,1020.03
2019-04-21T08:48:49.307Z,1020.04
2019-04-21T08:49:40.816Z,1020.03
2019-04-21T08:50:36.135Z,1020.01
2019-04-21T08:52:00.474Z,1020.03
2019-04-21T08:53:19.337Z,1020.01
2019-04-21T08:53:53.085Z,1020.05
2019-04-21T08:54:40.465Z,1020
2019-04-21T08:55:55.236Z,1020.02
2019-04-21T08:56:46.481Z,1019.99
2019-04-21T08:58:07.882Z,1019.99
2019-04-21T08:58:55.810Z,1019.93
2019-04-21T08:59:58.477Z,1019.96
2019-04-21T09:00:46.614Z,1019.94
2019-04-21T09:01:48.470Z,1019.93
2019-04-21T09:02:46.240Z,1019.96
2019-04-21T09:04:45.670Z,1019.92
2019-04-21T09:07:50.721Z,1019.91
2019-04-21T09:08:45.431Z,1019.88
2019-04-21T09:09:51.438Z,1019.87
2019-04-21T09:10:46.616Z,1019.88
2019-04-21T09:13:40.779Z,1019.81
2019-04-21T09:14:41.294Z,1019.81
2019-04-21T09:16:34.989Z,1019.76
2019-04-21T09:17:28.313Z,1019.73
2019-04-21T09:18:26.447Z,1019.75
2019-04-21T09:20:07.407Z,1019.72
2019-04-21T09:21:04.321Z,1019.68
2019-04-21T09:21:49.778Z,1019.67
2019-04-21T09:24:45.233Z,1019.66
2019-04-21T09:25:57.161Z,1019.67
2019-04-21T09:26:39.299Z,1019.64
2019-04-21T09:29:26.197Z,1019.65
2019-04-21T09:30:06.875Z,1019.69
2019-04-21T09:31:06.743Z,1019.63
2019-04-21T09:32:11.161Z,1019.66
2019-04-21T09:33:05.301Z,1019.62
2019-04-21T09:34:06.943Z,1019.63
2019-04-21T09:35:10.675Z,1019.6
2019-04-21T09:36:09.991Z,1019.63
2019-04-21T09:37:26.361Z,1019.58
2019-04-21T09:38:26.214Z,1019.57
2019-04-21T09:39:14.964Z,1019.59
2019-04-21T09:40:04.574Z,1019.57
2019-04-21T09:41:06.254Z,1019.55
2019-04-21T09:42:06.221Z,1019.54
2019-04-21T09:43:10.245Z,1019.53
2019-04-21T09:44:06.627Z,1019.56
2019-04-21T09:45:07.697Z,1019.56
2019-04-21T09:46:01.993Z,1019.51
2019-04-21T09:47:06.745Z,1019.51
2019-04-21T09:48:13.675Z,1019.47
2019-04-21T09:49:09.757Z,1019.47
2019-04-21T09:50:06.252Z,1019.47
2019-04-21T09:51:02.092Z,1019.43
2019-04-21T09:52:02.392Z,1019.43
2019-04-21T09:53:20.345Z,1019.47
2019-04-21T09:54:13.690Z,1019.41
2019-04-21T09:55:13.834Z,1019.38
2019-04-21T09:56:11.681Z,1019.37
2019-04-21T09:57:15.099Z,1019.34
2019-04-21T09:58:21.450Z,1019.27
2019-04-21T09:59:17.898Z,1019.25
2019-04-21T10:00:18.402Z,1019.23
2019-04-21T10:01:22.411Z,1019.26
2019-04-21T10:02:18.083Z,1019.22
2019-04-21T10:03:11.767Z,1019.18
2019-04-21T10:04:05.882Z,1019.16
2019-04-21T10:05:02.093Z,1019.17
2019-04-21T10:06:01.662Z,1019.18
2019-04-21T10:07:02.614Z,1019.18
2019-04-21T10:08:01.629Z,1019.13
2019-04-21T10:09:07.921Z,1019.11
2019-04-21T10:10:01.626Z,1019.12
2019-04-21T10:11:03.382Z,1019.08
2019-04-21T10:12:03.186Z,1019.04
2019-04-21T10:13:05.116Z,1019.02
2019-04-21T10:14:01.621Z,1019.03
2019-04-21T10:15:02.034Z,1019.01
2019-04-21T10:16:03.173Z,1018.99
2019-04-21T10:17:03.204Z,1018.99
2019-04-21T10:18:02.828Z,1018.93
2019-04-21T10:19:02.628Z,1018.93
2019-04-21T10:20:03.299Z,1018.9
2019-04-21T10:21:01.584Z,1018.88
2019-04-21T10:22:05.827Z,1018.87
2019-04-21T10:23:03.006Z,1018.83
2019-04-21T10:24:02.135Z,1018.79
2019-04-21T10:25:03.062Z,1018.77
2019-04-21T10:26:01.564Z,1018.76
2019-04-21T10:27:06.873Z,1018.75
2019-04-21T10:28:01.675Z,1018.68
2019-04-21T10:29:15.199Z,1018.68
2019-04-21T10:30:01.901Z,1018.66
2019-04-21T10:31:02.776Z,1018.67
2019-04-21T10:32:01.638Z,1018.64
2019-04-21T10:33:01.645Z,1018.63
2019-04-21T10:34:03.239Z,1018.6
2019-04-21T10:35:01.573Z,1018.56
2019-04-21T10:36:01.746Z,1018.56
2019-04-21T10:37:02.910Z,1018.52
2019-04-21T10:38:25.847Z,1018.55
2019-04-21T10:39:03.831Z,1018.56
2019-04-21T10:40:01.588Z,1018.5
2019-04-21T10:41:01.626Z,1018.48
2019-04-21T10:42:01.641Z,1018.48
2019-04-21T10:43:01.630Z,1018.48
2019-04-21T10:44:03.190Z,1018.43
2019-04-21T10:45:01.564Z,1018.44
2019-04-21T10:46:01.550Z,1018.38
2019-04-21T10:47:02.706Z,1018.4
2019-04-21T10:48:03.157Z,1018.37
2019-04-21T10:49:01.601Z,1018.35
2019-04-21T10:50:02.919Z,1018.36
2019-04-21T10:51:01.540Z,1018.36
2019-04-21T10:52:01.566Z,1018.34
2019-04-21T10:53:03.037Z,1018.28
2019-04-21T10:54:02.074Z,1018.29
2019-04-21T10:55:31.621Z,1018.29
2019-04-21T10:56:21.551Z,1018.23
2019-04-21T10:57:02.143Z,1018.32
2019-04-21T10:58:02.385Z,1018.25
2019-04-21T10:59:02.594Z,1018.25
2019-04-21T11:00:01.658Z,1018.22
2019-04-21T11:01:02.066Z,1018.2
2019-04-21T11:02:01.589Z,1018.17
2019-04-21T11:03:02.336Z,1018.11
2019-04-21T11:04:02.882Z,1018.11
2019-04-21T11:05:03.048Z,1018.03
2019-04-21T11:06:03.374Z,1018.05
2019-04-21T11:07:11.286Z,1018.05
2019-04-21T11:08:22.694Z,1018
2019-04-21T11:09:05.396Z,1018.01
2019-04-21T11:10:02.603Z,1017.96
2019-04-21T11:11:01.799Z,1017.93
2019-04-21T11:12:02.164Z,1017.93
2019-04-21T11:13:02.931Z,1017.92
2019-04-21T11:14:02.551Z,1017.92
2019-04-21T11:15:01.529Z,1017.85
2019-04-21T11:16:01.587Z,1017.9
2019-04-21T11:17:01.669Z,1017.84
2019-04-21T11:18:01.866Z,1017.83
2019-04-21T11:19:02.099Z,1017.82
2019-04-21T11:20:01.567Z,1017.82
2019-04-21T11:21:03.114Z,1017.8
2019-04-21T11:22:03.058Z,1017.74
2019-04-21T11:23:01.919Z,1017.75
2019-04-21T11:24:02.014Z,1017.81
2019-04-21T11:25:03.138Z,1017.77
2019-04-21T11:26:02.370Z,1017.79
2019-04-21T11:27:01.966Z,1017.75
2019-04-21T11:28:03.012Z,1017.77
2019-04-21T11:29:03.098Z,1017.74
2019-04-21T11:30:02.445Z,1017.69
2019-04-21T11:31:02.759Z,1017.73
2019-04-21T11:32:01.832Z,1017.77
2019-04-21T11:33:01.535Z,1017.73
2019-04-21T11:34:02.994Z,1017.75
2019-04-21T11:35:01.557Z,1017.73
2019-04-21T11:36:01.542Z,1017.72
2019-04-21T11:37:02.054Z,1017.73
2019-04-21T11:38:16.575Z,1017.7
2019-04-21T11:39:29.137Z,1017.7
2019-04-21T11:40:11.243Z,1017.65
2019-04-21T11:41:01.511Z,1017.63
2019-04-21T11:42:01.814Z,1017.6
2019-04-21T11:43:02.036Z,1017.62
2019-04-21T11:44:01.597Z,1017.58
2019-04-21T11:45:01.521Z,1017.62
2019-04-21T11:46:02.669Z,1017.55
2019-04-21T11:47:02.676Z,1017.56
2019-04-21T11:48:01.501Z,1017.58
2019-04-21T11:49:02.539Z,1017.59
2019-04-21T11:50:01.568Z,1017.52
2019-04-21T11:51:01.490Z,1017.52
2019-04-21T11:52:03.003Z,1017.45
2019-04-21T11:53:01.498Z,1017.48
2019-04-21T11:54:01.594Z,1017.45
2019-04-21T11:55:02.874Z,1017.53
2019-04-21T11:56:02.904Z,1017.44
2019-04-21T11:57:14.007Z,1017.44
2019-04-21T11:58:01.489Z,1017.42
2019-04-21T11:59:01.782Z,1017.42
2019-04-21T12:00:01.927Z,1017.36
2019-04-21T12:01:01.835Z,1017.38
2019-04-21T12:02:01.712Z,1017.33
2019-04-21T12:03:01.683Z,1017.3
2019-04-21T12:04:01.493Z,1017.27
2019-04-21T12:05:01.494Z,1017.27
2019-04-21T12:06:01.691Z,1017.29
2019-04-21T12:07:01.997Z,1017.37
2019-04-21T12:08:02.170Z,1017.3
2019-04-21T12:09:05.203Z,1017.28
2019-04-21T12:10:01.789Z,1017.22
2019-04-21T12:11:01.504Z,1017.2
2019-04-21T12:12:01.579Z,1017.2
2019-04-21T12:13:07.299Z,1017.18
2019-04-21T12:14:01.473Z,1017.16
2019-04-21T12:15:02.023Z,1017.18
2019-04-21T12:16:01.499Z,1017.16
2019-04-21T12:17:02.749Z,1017.14
2019-04-21T12:18:01.814Z,1017.14
2019-04-21T12:19:03.065Z,1017.15
2019-04-21T12:20:01.454Z,1017.11
2019-04-21T12:21:01.478Z,1017.12
2019-04-21T12:22:17.955Z,1017.08
2019-04-21T12:23:02.557Z,1017.12
2019-04-21T12:24:02.775Z,1017.06
2019-04-21T12:25:01.461Z,1017.09
2019-04-21T12:26:01.511Z,1017
2019-04-21T12:27:02.429Z,1017.03
2019-04-21T12:28:01.806Z,1017.06
2019-04-21T12:29:01.963Z,1017.03
2019-04-21T12:30:02.196Z,1017.02
2019-04-21T12:31:01.507Z,1016.95
2019-04-21T12:32:01.539Z,1016.94
2019-04-21T12:33:02.429Z,1016.9
2019-04-21T12:34:01.492Z,1016.92
2019-04-21T12:35:01.919Z,1016.88
2019-04-21T12:36:02.057Z,1016.86
2019-04-21T12:37:01.476Z,1016.88
2019-04-21T12:38:02.870Z,1016.87
2019-04-21T12:39:06.663Z,1016.89
2019-04-21T12:40:03.414Z,1016.84
2019-04-21T12:41:02.477Z,1016.88
2019-04-21T12:42:02.683Z,1016.81
2019-04-21T12:43:02.994Z,1016.85
2019-04-21T12:44:02.666Z,1016.77
2019-04-21T12:45:01.634Z,1016.75
2019-04-21T12:46:02.391Z,1016.79
2019-04-21T12:47:01.824Z,1016.8
2019-04-21T12:48:02.220Z,1016.74
2019-04-21T12:49:02.317Z,1016.78
2019-04-21T12:50:02.889Z,1016.69
2019-04-21T12:51:01.923Z,1016.68
2019-04-21T12:52:02.041Z,1016.63
2019-04-21T12:53:01.430Z,1016.61
2019-04-21T12:54:01.714Z,1016.57
2019-04-21T12:55:01.909Z,1016.58
2019-04-21T12:56:02.242Z,1016.57
2019-04-21T12:57:01.427Z,1016.56
2019-04-21T12:58:01.552Z,1016.52
2019-04-21T12:59:01.682Z,1016.54
2019-04-21T13:00:02.964Z,1016.54
2019-04-21T13:01:01.424Z,1016.56
2019-04-21T13:02:01.492Z,1016.54
2019-04-21T13:03:01.801Z,1016.51
2019-04-21T13:04:01.944Z,1016.52
2019-04-21T13:05:02.226Z,1016.44
2019-04-21T13:06:01.610Z,1016.43
2019-04-21T13:07:01.574Z,1016.4
2019-04-21T13:08:01.714Z,1016.36
2019-04-21T13:09:09.297Z,1016.31
2019-04-21T13:10:02.437Z,1016.34
2019-04-21T13:11:02.454Z,1016.29
2019-04-21T13:12:01.611Z,1016.3
2019-04-21T13:13:01.860Z,1016.29
2019-04-21T13:14:02.005Z,1016.28
2019-04-21T13:15:04.328Z,1016.31
2019-04-21T13:16:01.419Z,1016.29
2019-04-21T13:17:01.602Z,1016.27
2019-04-21T13:18:02.812Z,1016.29
2019-04-21T13:19:01.398Z,1016.24
2019-04-21T13:20:01.507Z,1016.2
2019-04-21T13:21:05.227Z,1016.19
2019-04-21T13:22:01.734Z,1016.17
2019-04-21T13:23:01.990Z,1016.19
2019-04-21T13:24:01.401Z,1016.16
2019-04-21T13:25:02.568Z,1016.11
2019-04-21T13:26:04.966Z,1016.02
2019-04-21T13:27:05.613Z,1016.06
2019-04-21T13:28:02.957Z,1016.04
2019-04-21T13:29:02.817Z,1016.06
2019-04-21T13:30:02.381Z,1016.04
2019-04-21T13:31:02.403Z,1016.01
2019-04-21T13:32:05.413Z,1015.96
2019-04-21T13:33:03.111Z,1015.95
2019-04-21T13:34:02.284Z,1015.95
2019-04-21T13:35:01.458Z,1015.97
2019-04-21T13:36:02.916Z,1015.99
2019-04-21T13:37:01.728Z,1015.9
2019-04-21T13:38:02.826Z,1015.89
2019-04-21T13:40:01.356Z,1015.85